createdAt,value
2019-05-26T00:04:30.685Z,5.93
2019-05-26T00:09:26.581Z,5.70
2019-05-26T00:14:20.504Z,5.27
2019-05-26T00:19:15.223Z,5.30
2019-05-26T00:24:09.109Z,5.33
2019-05-26T00:29:04.483Z,5.60
2019-05-26T00:34:02.817Z,6.07
2019-05-26T00:38:57.504Z,6.00
2019-05-26T00:43:52.954Z,5.23
2019-05-26T00:48:48.104Z,5.47
2019-05-26T00:53:43.916Z,5.70
2019-05-26T00:58:38.119Z,5.77
2019-05-26T01:03:32.697Z,6.10
2019-05-26T01:08:27.577Z,6.07
2019-05-26T01:13:21.679Z,6.27
2019-05-26T01:18:17.845Z,6.23
2019-05-26T01:23:11.717Z,6.63
2019-05-26T01:28:08.975Z,5.70
2019-05-26T01:33:04.342Z,6.40
2019-05-26T01:38:04.824Z,6.03
2019-05-26T01:43:00.482Z,5.87
2019-05-26T01:47:54.783Z,5.73
2019-05-26T01:52:48.542Z,6.67
2019-05-26T01:57:42.236Z,6.90
2019-05-26T02:02:36.135Z,6.93
2019-05-26T02:17:18.608Z,7.00
2019-05-26T02:22:12.452Z,6.67
2019-05-26T02:27:07.217Z,6.77
2019-05-26T02:32:02.691Z,6.93
2019-05-26T02:36:56.815Z,7.80
2019-05-26T02:41:50.869Z,7.67
2019-05-26T02:46:45.785Z,7.30
2019-05-26T02:51:39.548Z,7.37
2019-05-26T02:56:34.141Z,7.63
2019-05-26T03:01:29.380Z,7.60
2019-05-26T03:06:24.812Z,8.37
2019-05-26T03:11:20.564Z,8.10
2019-05-26T03:16:16.485Z,8.37
2019-05-26T03:21:13.150Z,7.67
2019-05-26T03:26:07.409Z,8.20
2019-05-26T03:31:01.981Z,8.80
2019-05-26T03:35:57.059Z,8.93
2019-05-26T03:40:51.435Z,8.30
2019-05-26T03:46:05.141Z,8.40
2019-05-26T03:50:59.144Z,8.00
2019-05-26T03:55:53.408Z,8.43
2019-05-26T04:00:49.180Z,8.33
2019-05-26T04:05:44.308Z,7.97
2019-05-26T04:10:38.568Z,7.73
2019-05-26T04:15:33.617Z,6.67
2019-05-26T04:20:28.697Z,7.40
2019-05-26T04:25:25.715Z,7.10
2019-05-26T04:30:20.075Z,7.50
2019-05-26T04:35:13.882Z,7.43
2019-05-26T04:40:25.763Z,6.57
2019-05-26T04:49:59.600Z,5.00
2019-05-26T04:54:55.278Z,5.00
2019-05-26T04:59:49.137Z,3.97
2019-05-26T05:04:43.552Z,4.50
2019-05-26T05:09:39.317Z,4.33
2019-05-26T05:14:34.133Z,4.40
2019-05-26T05:19:28.390Z,3.73
2019-05-26T05:24:23.197Z,3.43
2019-05-26T05:29:19.299Z,4.00
2019-05-26T05:34:15.159Z,4.20
2019-05-26T05:39:09.783Z,3.90
2019-05-26T05:58:44.773Z,3.93
2019-05-26T06:03:39.129Z,3.23
2019-05-26T06:08:34.144Z,3.23
2019-05-26T06:13:28.584Z,3.50
2019-05-26T06:23:15.924Z,4.22
2019-05-26T06:28:12.450Z,3.80
2019-05-26T06:33:08.119Z,2.58
2019-05-26T06:38:05.128Z,2.70
2019-05-26T06:42:59.850Z,2.67
2019-05-26T06:47:54.078Z,2.12
2019-05-26T06:52:48.481Z,2.02
2019-05-26T06:57:44.698Z,1.77
2019-05-26T07:02:40.971Z,2.10
2019-05-26T07:07:36.093Z,1.75
2019-05-26T07:12:30.591Z,1.75
2019-05-26T07:17:25.124Z,1.40
2019-05-26T07:22:21.262Z,2.02
2019-05-26T07:27:15.119Z,1.55
2019-05-26T07:32:28.315Z,1.47
2019-05-26T07:37:24.211Z,1.27
2019-05-26T07:42:18.965Z,1.60
2019-05-26T07:47:13.052Z,4.12
2019-05-26T07:52:09.487Z,1.40
2019-05-26T07:57:03.893Z,1.50
2019-05-26T08:01:59.675Z,1.50
2019-05-26T08:06:57.043Z,1.45
2019-05-26T08:11:52.883Z,1.72
2019-05-26T08:16:46.631Z,1.90
2019-05-26T08:21:43.607Z,1.77
2019-05-26T08:26:38.507Z,1.87
2019-05-26T08:31:32.981Z,1.80
2019-05-26T08:36:27.303Z,1.80
2019-05-26T08:41:23.011Z,1.50
2019-05-26T08:46:17.123Z,1.87
2019-05-26T08:51:12.142Z,2.33
2019-05-26T08:56:05.979Z,3.08
2019-05-26T09:01:02.297Z,1.70
2019-05-26T09:05:57.384Z,1.80
2019-05-26T09:10:52.994Z,2.08
2019-05-26T09:15:46.907Z,1.77
2019-05-26T09:20:41.179Z,1.82
2019-05-26T09:25:35.809Z,1.85
2019-05-26T09:30:30.006Z,1.60
2019-05-26T09:35:25.476Z,2.77
2019-05-26T09:40:20.726Z,1.75
2019-05-26T09:45:14.591Z,1.67
2019-05-26T09:50:10.180Z,1.07
2019-05-26T09:55:08.376Z,1.02
2019-05-26T10:00:02.973Z,1.65
2019-05-26T10:04:56.808Z,1.98
2019-05-26T10:09:51.525Z,3.58
2019-05-26T10:14:48.330Z,3.72
2019-05-26T10:19:44.791Z,1.62
2019-05-26T10:24:39.011Z,2.10
2019-05-26T10:29:33.380Z,3.00
2019-05-26T10:34:27.288Z,1.67
2019-05-26T10:39:22.687Z,1.95
2019-05-26T10:44:17.512Z,2.00
2019-05-26T10:49:13.721Z,2.27
2019-05-26T10:54:07.733Z,1.45
2019-05-26T10:59:02.944Z,1.40
2019-05-26T11:03:57.577Z,1.90
2019-05-26T11:08:51.798Z,1.52
2019-05-26T11:14:01.946Z,1.50
2019-05-26T11:18:44.789Z,2.10
2019-05-26T11:23:42.450Z,1.50
2019-05-26T11:28:37.451Z,1.80
2019-05-26T11:33:33.108Z,2.27
2019-05-26T11:38:27.431Z,1.80
2019-05-26T11:43:21.718Z,2.13
2019-05-26T11:48:17.522Z,2.40
2019-05-26T11:53:11.390Z,2.10
2019-05-26T11:58:08.863Z,1.70
2019-05-26T12:03:02.995Z,1.57
2019-05-26T12:07:57.517Z,1.50
2019-05-26T12:12:51.970Z,1.57
2019-05-26T12:17:47.015Z,1.03
2019-05-26T12:22:40.815Z,1.17
2019-05-26T12:27:35.742Z,1.33
2019-05-26T12:32:30.438Z,1.50
2019-05-26T12:37:25.243Z,1.20
2019-05-26T12:42:19.081Z,1.67
2019-05-26T12:47:13.750Z,1.60
2019-05-26T12:52:08.735Z,1.30
2019-05-26T12:57:03.796Z,1.30
2019-05-26T13:01:58.078Z,0.90
2019-05-26T13:06:55.222Z,1.10
2019-05-26T13:11:49.642Z,1.23
2019-05-26T13:16:45.756Z,1.27
2019-05-26T13:21:39.763Z,1.40
2019-05-26T13:26:34.300Z,1.17
2019-05-26T13:31:28.080Z,1.40
2019-05-26T13:36:22.965Z,1.47
2019-05-26T13:41:17.188Z,0.77
2019-05-26T13:46:11.796Z,1.07
2019-05-26T13:51:06.908Z,1.20
2019-05-26T13:56:01.195Z,1.10
2019-05-26T14:00:54.935Z,1.30
2019-05-26T14:05:49.282Z,1.60
2019-05-26T14:10:43.142Z,0.93
2019-05-26T14:15:39.413Z,1.83
2019-05-26T14:20:36.815Z,1.33
2019-05-26T14:25:34.110Z,1.77
2019-05-26T14:30:28.275Z,3.67
2019-05-26T14:35:22.256Z,1.93
2019-05-26T14:40:18.391Z,1.40
2019-05-26T14:45:13.544Z,7.07
2019-05-26T14:50:18.996Z,2.10
2019-05-26T14:55:14.699Z,2.83
2019-05-26T15:00:12.559Z,1.10
2019-05-26T15:05:08.259Z,1.13
2019-05-26T15:10:03.771Z,4.27
2019-05-26T15:14:58.712Z,1.20
2019-05-26T15:24:46.076Z,1.13
2019-05-26T15:29:42.485Z,1.07
2019-05-26T15:34:36.322Z,1.10
2019-05-26T15:44:25.098Z,1.47
2019-05-26T15:49:19.457Z,1.40
2019-05-26T15:54:16.567Z,1.13
2019-05-26T15:59:10.353Z,1.93
2019-05-26T16:04:05.474Z,4.07
2019-05-26T16:08:59.210Z,3.57
2019-05-26T16:13:53.115Z,1.63
2019-05-26T16:18:47.450Z,1.40
2019-05-26T16:28:34.467Z,1.60
2019-05-26T16:33:28.802Z,1.40
2019-05-26T16:38:22.631Z,1.43
2019-05-26T16:43:16.974Z,8.03
2019-05-26T16:48:10.975Z,3.70
2019-05-26T16:53:06.708Z,3.37
2019-05-26T16:58:01.038Z,2.10
2019-05-26T17:02:55.347Z,3.50
2019-05-26T17:07:50.525Z,2.20
2019-05-26T17:12:44.408Z,2.50
2019-05-26T17:17:38.216Z,1.20
2019-05-26T17:22:32.868Z,1.50
2019-05-26T17:27:28.058Z,1.57
2019-05-26T17:32:22.123Z,1.70
2019-05-26T17:37:16.025Z,10.47
2019-05-26T17:42:10.445Z,1.10
2019-05-26T17:47:04.915Z,1.27
2019-05-26T17:51:59.326Z,1.67
2019-05-26T17:56:53.447Z,1.93
2019-05-26T18:01:47.511Z,1.53
2019-05-26T18:06:42.326Z,1.73
2019-05-26T18:11:44.062Z,1.83
2019-05-26T18:16:38.060Z,1.90
2019-05-26T18:21:31.939Z,2.07
2019-05-26T18:26:26.971Z,2.37
2019-05-26T18:31:20.880Z,2.33
2019-05-26T18:36:14.734Z,3.20
2019-05-26T18:41:11.951Z,1.70
2019-05-26T18:46:06.755Z,2.00
2019-05-26T18:51:05.469Z,2.00
2019-05-26T18:55:59.532Z,1.80
2019-05-26T19:00:54.298Z,3.07
2019-05-26T19:05:49.552Z,2.83
2019-05-26T19:10:43.444Z,1.80
2019-05-26T19:15:38.928Z,2.03
2019-05-26T19:20:32.825Z,1.90
2019-05-26T19:25:29.216Z,2.90
2019-05-26T19:30:23.219Z,1.90
2019-05-26T19:35:17.323Z,2.00
2019-05-26T19:40:12.570Z,3.17
2019-05-26T19:45:08.637Z,4.10
2019-05-26T19:50:02.694Z,5.33
2019-05-26T19:54:59.458Z,4.83
2019-05-26T19:59:54.675Z,3.70
2019-05-26T20:04:48.723Z,10.23
2019-05-26T20:09:42.980Z,2.90
2019-05-26T20:14:37.571Z,3.50
2019-05-26T20:24:24.788Z,3.10
2019-05-26T20:29:19.172Z,3.57
2019-05-26T20:34:12.984Z,2.60
2019-05-26T20:39:10.016Z,2.37
2019-05-26T20:44:05.867Z,6.03
2019-05-26T20:49:00.261Z,8.50
2019-05-26T20:53:56.709Z,2.83
2019-05-26T20:58:50.875Z,3.33
2019-05-26T21:03:45.406Z,13.00
2019-05-26T21:08:43.282Z,3.07
2019-05-26T21:13:37.473Z,2.63
2019-05-26T21:33:15.101Z,5.80
2019-05-26T21:38:09.573Z,3.13
2019-05-26T21:43:05.442Z,5.67
2019-05-26T21:47:59.203Z,3.10
2019-05-26T21:52:53.541Z,3.00
2019-05-26T21:57:47.277Z,3.20
2019-05-26T22:02:42.061Z,3.70
2019-05-26T22:07:36.523Z,3.53
2019-05-26T22:12:33.049Z,3.20
2019-05-26T22:17:28.666Z,3.30
2019-05-26T22:22:24.061Z,4.50
2019-05-26T22:27:18.798Z,3.43
2019-05-26T22:32:15.471Z,12.53
2019-05-26T22:37:10.319Z,3.37
2019-05-26T22:42:05.835Z,3.67
2019-05-26T22:47:01.796Z,3.23
2019-05-26T22:51:56.427Z,3.23
2019-05-26T22:56:51.478Z,4.07
2019-05-26T23:01:45.704Z,3.93
2019-05-26T23:06:40.115Z,3.97
2019-05-26T23:11:34.486Z,3.47
2019-05-26T23:16:29.027Z,3.20
2019-05-26T23:21:22.850Z,3.60
2019-05-26T23:26:16.607Z,3.73
2019-05-26T23:31:11.547Z,3.73
2019-05-26T23:36:05.427Z,3.17
2019-05-26T23:40:59.245Z,3.23
2019-05-26T23:45:55.049Z,3.23
2019-05-26T23:50:49.859Z,2.87
2019-05-26T23:55:45.889Z,3.33
